Perrysville, Ohio
Current Conditions -  °F | °C
As of 10:52 AM on Friday 24 Oct 2014 (Local Time) from KMFD Reporting Station
Clear Clear  
Wind Chill: 54°   Ceiling: Unl
Heat Index: 54°   Visibility: 10mi
Dew Point: 43°   Wind: 7mph
Humidity: 66%   Direction: 270°W
Pressure: 30.11"   Gusts: NA
Location:  40.66°N, 82.31°W
Report Text: KMFD 241452Z 27006KT 10SM CLR 12/06 A3011 RMK AO2 SLP199 T01220061 51004
Loading
Personal Weather Stations






























Interactive Weather Map
Tropical Storm Tracking
New forecast layout! Learn more

10-Day Weather Forecast

Advertisements
Track Severe Weather on mobile